Time;durP1;ratioP1;P1;durP2;ratioP2;P2;SDS_P1;SDS_P2;PMS_P1;PMS_P2;Temp;Humidity;BMP_temperature;BMP_pressure;BME280_temperature;BME280_humidity;BME280_pressure;Samples;Min_cycle;Max_cycle;Signal;HPM_P1;HPM_P2
2023/03/09 00:00:50;;;;;;;50.90;28.60;;;2.50;99.90;;;;;;5026221;28;20116;-54
2023/03/09 00:03:16;;;;;;;50.67;28.30;;;2.50;99.90;;;;;;5020939;28;20037;-54
2023/03/09 00:05:43;;;;;;;53.58;29.80;;;2.40;99.90;;;;;;5026451;28;20037;-54
2023/03/09 00:08:10;;;;;;;53.97;29.45;;;2.40;99.90;;;;;;5023761;28;20037;-52
2023/03/09 00:10:40;;;;;;;61.15;30.60;;;2.40;99.90;;;;;;5025766;28;20426;-54
2023/03/09 00:13:05;;;;;;;60.38;30.95;;;2.50;99.90;;;;;;5022979;28;20034;-53
2023/03/09 00:15:31;;;;;;;57.95;30.92;;;2.50;99.90;;;;;;5028880;28;20037;-54
2023/03/09 00:17:56;;;;;;;58.50;30.67;;;2.50;99.90;;;;;;5025765;28;20128;-52
2023/03/09 00:20:24;;;;;;;56.63;30.33;;;2.30;99.90;;;;;;5019681;28;20044;-53
2023/03/09 00:22:51;;;;;;;62.22;30.55;;;2.40;99.90;;;;;;5023320;28;20348;-53
2023/03/09 00:25:18;;;;;;;59.20;30.85;;;2.40;99.90;;;;;;5023960;28;20044;-53
2023/03/09 00:27:47;;;;;;;57.05;29.73;;;2.40;99.90;;;;;;5020572;28;20038;-53
2023/03/09 00:30:13;;;;;;;55.35;27.17;;;2.50;99.90;;;;;;5027521;28;20041;-53
2023/03/09 00:32:38;;;;;;;55.22;28.27;;;2.40;99.90;;;;;;5019589;28;20042;-53
2023/03/09 00:35:05;;;;;;;55.08;29.23;;;2.30;99.90;;;;;;5026384;28;20026;-54
2023/03/09 00:37:31;;;;;;;53.72;30.67;;;2.40;99.90;;;;;;5027178;28;20060;-52
2023/03/09 00:39:57;;;;;;;58.60;30.70;;;2.40;99.90;;;;;;5022294;28;20044;-53
2023/03/09 00:42:23;;;;;;;57.17;29.83;;;2.40;99.90;;;;;;5023016;28;20033;-52
2023/03/09 00:44:50;;;;;;;60.10;31.08;;;2.50;99.90;;;;;;5031531;28;20036;-53
2023/03/09 00:47:16;;;;;;;61.08;32.88;;;2.40;99.90;;;;;;5037415;28;20634;-54
2023/03/09 00:49:42;;;;;;;64.05;30.88;;;2.30;99.90;;;;;;5028439;28;20049;-54
2023/03/09 00:52:07;;;;;;;68.07;34.05;;;2.40;99.90;;;;;;5032276;28;20048;-53
2023/03/09 00:54:33;;;;;;;75.10;35.15;;;2.40;99.90;;;;;;5024333;28;20091;-51
2023/03/09 00:57:01;;;;;;;77.53;36.17;;;2.50;99.90;;;;;;5032884;28;20039;-53
2023/03/09 00:59:28;;;;;;;73.05;37.60;;;2.50;99.90;;;;;;5022531;28;20060;-52
2023/03/09 01:01:53;;;;;;;76.30;36.00;;;2.40;99.90;;;;;;5020288;28;20437;-52
2023/03/09 01:04:19;;;;;;;69.57;35.08;;;2.40;99.90;;;;;;5043036;28;20061;-53
2023/03/09 01:06:45;;;;;;;78.13;36.50;;;2.40;99.90;;;;;;5032129;28;20033;-53
2023/03/09 01:09:10;;;;;;;75.30;36.25;;;2.40;99.90;;;;;;5039646;28;20043;-52
2023/03/09 01:11:36;;;;;;;69.25;34.05;;;2.50;99.90;;;;;;5034564;28;20030;-53
2023/03/09 01:14:02;;;;;;;73.47;36.85;;;2.50;99.90;;;;;;5031316;28;20130;-51
2023/03/09 01:16:28;;;;;;;70.30;32.83;;;2.50;99.90;;;;;;5029279;28;20082;-53
2023/03/09 01:18:53;;;;;;;71.82;34.88;;;2.40;99.90;;;;;;5037089;28;20065;-53
2023/03/09 01:21:19;;;;;;;70.22;35.20;;;2.40;99.90;;;;;;5036133;28;20037;-53
2023/03/09 01:23:45;;;;;;;75.55;37.17;;;2.50;99.90;;;;;;5018717;28;20037;-53
2023/03/09 01:26:11;;;;;;;79.95;39.05;;;2.70;99.90;;;;;;5013427;28;20041;-52
2023/03/09 01:28:37;;;;;;;80.72;38.42;;;2.70;99.90;;;;;;5002396;28;20046;-54
2023/03/09 01:31:10;;;;;;;77.60;36.75;;;2.70;99.90;;;;;;5022492;28;20061;-52
2023/03/09 01:33:36;;;;;;;74.40;37.40;;;2.60;99.90;;;;;;5027962;28;20060;-53
2023/03/09 01:36:13;;;;;;;75.95;37.85;;;2.60;99.90;;;;;;5038037;28;20040;-51
2023/03/09 01:38:38;;;;;;;73.80;36.42;;;2.60;99.90;;;;;;5025120;28;20037;-53
2023/03/09 01:41:04;;;;;;;72.75;35.40;;;2.60;99.90;;;;;;5020008;28;20457;-52
2023/03/09 01:43:34;;;;;;;70.75;34.70;;;2.60;99.90;;;;;;5025176;28;20440;-52
2023/03/09 01:46:25;;;;;;;65.85;33.10;;;2.50;99.90;;;;;;5023435;28;20438;-53
2023/03/09 01:48:57;;;;;;;59.17;30.20;;;2.50;99.90;;;;;;5031559;28;20136;-53
2023/03/09 01:51:27;;;;;;;61.35;30.30;;;2.40;99.90;;;;;;5029224;28;20036;-51
2023/03/09 01:53:53;;;;;;;56.08;30.92;;;2.40;99.90;;;;;;5033095;28;20063;-52
2023/03/09 01:56:21;;;;;;;57.28;29.27;;;2.30;99.90;;;;;;5022250;28;20041;-52
2023/03/09 01:58:50;;;;;;;65.70;33.72;;;2.30;99.90;;;;;;5034456;28;20037;-52
2023/03/09 02:01:16;;;;;;;65.80;33.88;;;2.50;99.90;;;;;;5034301;28;20037;-52
2023/03/09 02:03:46;;;;;;;65.47;35.58;;;2.50;99.90;;;;;;5021692;28;20045;-52
2023/03/09 02:06:15;;;;;;;68.03;35.38;;;2.50;99.90;;;;;;5036676;28;20080;-54
2023/03/09 02:08:50;;;;;;;64.03;34.22;;;2.50;99.90;;;;;;5035526;28;20048;-53
2023/03/09 02:11:16;;;;;;;63.67;33.72;;;2.50;99.90;;;;;;5028110;28;20037;-53
2023/03/09 02:13:46;;;;;;;67.70;35.33;;;2.60;99.90;;;;;;5014461;28;20036;-53
2023/03/09 02:16:12;;;;;;;68.50;35.25;;;2.70;99.90;;;;;;5037886;28;20252;-53
2023/03/09 02:18:39;;;;;;;67.50;36.33;;;2.50;99.90;;;;;;5024701;28;20470;-54
2023/03/09 02:21:20;;;;;;;68.38;35.30;;;2.40;99.90;;;;;;5028289;28;20037;-53
2023/03/09 02:23:52;;;;;;;73.50;36.17;;;2.70;99.90;;;;;;5023295;28;20041;-52
2023/03/09 02:26:20;;;;;;;68.07;35.75;;;2.70;99.90;;;;;;5026944;28;20125;-54
2023/03/09 02:28:46;;;;;;;67.95;35.85;;;2.60;99.90;;;;;;5029386;28;20207;-53
2023/03/09 02:31:14;;;;;;;69.88;37.28;;;2.60;99.90;;;;;;5035019;28;20440;-52
2023/03/09 02:33:40;;;;;;;65.72;34.05;;;2.60;99.90;;;;;;5022277;28;20064;-54
2023/03/09 02:36:07;;;;;;;70.25;36.33;;;2.60;99.90;;;;;;5021023;28;20124;-53
2023/03/09 02:38:32;;;;;;;67.68;35.65;;;2.70;99.90;;;;;;5024858;28;20156;-50
2023/03/09 02:41:00;;;;;;;68.90;36.15;;;2.40;99.90;;;;;;5022091;28;20034;-52
2023/03/09 02:43:35;;;;;;;65.78;35.20;;;2.40;99.90;;;;;;5033198;28;20035;-52
2023/03/09 02:46:00;;;;;;;62.75;34.28;;;2.40;99.90;;;;;;5020655;28;20037;-53
2023/03/09 02:48:26;;;;;;;67.07;35.03;;;2.40;99.90;;;;;;5026497;28;20055;-52
2023/03/09 02:50:52;;;;;;;69.47;35.00;;;2.50;99.90;;;;;;5046601;28;20056;-53
2023/03/09 02:53:17;;;;;;;68.90;35.63;;;2.80;99.90;;;;;;5047060;28;20120;-51
2023/03/09 02:55:43;;;;;;;67.53;35.38;;;2.70;99.90;;;;;;5045911;28;20055;-54
2023/03/09 02:58:08;;;;;;;71.13;35.58;;;2.70;99.90;;;;;;5043249;28;20040;-52
2023/03/09 03:00:34;;;;;;;68.35;36.55;;;2.80;99.90;;;;;;5045097;28;20030;-54
2023/03/09 03:03:00;;;;;;;67.57;35.80;;;2.60;99.90;;;;;;5046690;28;20033;-54
2023/03/09 03:05:25;;;;;;;72.68;36.25;;;2.50;99.90;;;;;;5042901;28;20060;-52
2023/03/09 03:07:51;;;;;;;71.10;36.28;;;2.40;99.90;;;;;;5041354;28;20029;-53
2023/03/09 03:10:17;;;;;;;69.70;35.15;;;2.40;99.90;;;;;;5047044;28;20044;-51
2023/03/09 03:12:42;;;;;;;69.32;35.05;;;2.60;99.90;;;;;;5045931;28;20067;-53
2023/03/09 03:15:08;;;;;;;74.22;36.67;;;2.50;99.90;;;;;;5039434;28;20029;-52
2023/03/09 03:17:34;;;;;;;76.18;36.65;;;2.60;99.90;;;;;;5047263;28;20037;-51
2023/03/09 03:19:59;;;;;;;70.82;36.90;;;2.30;99.90;;;;;;5041541;28;20052;-51
2023/03/09 03:22:25;;;;;;;70.65;36.65;;;2.30;99.90;;;;;;5045438;28;20029;-51
2023/03/09 03:24:51;;;;;;;74.97;38.05;;;2.40;99.90;;;;;;5040207;28;20500;-53
2023/03/09 03:27:16;;;;;;;78.20;38.75;;;2.60;99.90;;;;;;5046253;28;20100;-52
2023/03/09 03:29:42;;;;;;;68.63;36.55;;;2.70;99.90;;;;;;5040303;28;20075;-52
2023/03/09 03:32:07;;;;;;;74.53;37.00;;;2.50;99.90;;;;;;5045510;28;20050;-52
2023/03/09 03:34:34;;;;;;;78.65;36.60;;;2.40;99.90;;;;;;5039647;28;20063;-51
2023/03/09 03:36:59;;;;;;;71.45;34.25;;;2.30;99.90;;;;;;5029039;28;20028;-52
2023/03/09 03:39:25;;;;;;;77.22;36.05;;;2.30;99.90;;;;;;5044484;28;20041;-52
2023/03/09 03:41:50;;;;;;;75.90;36.92;;;2.30;99.90;;;;;;5045347;28;20381;-53
2023/03/09 03:44:16;;;;;;;73.50;37.88;;;2.40;99.90;;;;;;5046931;28;20029;-53
2023/03/09 03:46:42;;;;;;;67.85;35.03;;;2.30;99.90;;;;;;5042794;28;20117;-52
2023/03/09 03:49:07;;;;;;;74.72;36.40;;;2.30;99.90;;;;;;5040754;28;20614;-51
2023/03/09 03:51:33;;;;;;;71.45;35.28;;;2.20;99.90;;;;;;5047054;28;20447;-52
2023/03/09 03:53:59;;;;;;;74.85;36.40;;;2.30;99.90;;;;;;5045643;28;20048;-52
2023/03/09 03:56:24;;;;;;;73.75;37.28;;;2.30;99.90;;;;;;5044461;28;20037;-53
2023/03/09 03:58:50;;;;;;;72.38;38.25;;;2.30;99.90;;;;;;5044669;28;20037;-52
2023/03/09 04:01:15;;;;;;;77.97;37.65;;;2.40;99.90;;;;;;5043094;28;20460;-52
2023/03/09 04:03:41;;;;;;;73.88;36.95;;;2.50;99.90;;;;;;5045969;28;20128;-53
2023/03/09 04:06:07;;;;;;;71.00;35.28;;;2.60;99.90;;;;;;5039563;28;20056;-52
2023/03/09 04:08:33;;;;;;;80.25;37.47;;;2.70;99.90;;;;;;5037638;28;20143;-52
2023/03/09 04:10:59;;;;;;;72.43;37.20;;;2.60;99.90;;;;;;5039746;28;20025;-52
2023/03/09 04:13:24;;;;;;;74.15;36.67;;;2.50;99.90;;;;;;5043047;28;20083;-52
2023/03/09 04:15:50;;;;;;;82.28;37.13;;;2.60;99.90;;;;;;5034242;28;20504;-51
2023/03/09 04:18:15;;;;;;;70.53;35.08;;;2.90;99.90;;;;;;5042484;28;20036;-51
2023/03/09 04:20:42;;;;;;;75.70;36.90;;;2.80;99.90;;;;;;5043416;28;20064;-53
2023/03/09 04:23:10;;;;;;;75.40;36.70;;;2.50;99.90;;;;;;5045707;28;20388;-52
2023/03/09 04:25:35;;;;;;;72.03;36.20;;;2.40;99.90;;;;;;5044245;28;20558;-51
2023/03/09 04:28:01;;;;;;;77.82;37.28;;;2.50;99.90;;;;;;5046927;28;20041;-53
2023/03/09 04:30:27;;;;;;;76.30;36.28;;;2.50;99.90;;;;;;5025377;28;20057;-53
2023/03/09 04:32:52;;;;;;;76.13;36.13;;;2.40;99.90;;;;;;5032706;28;20033;-52
2023/03/09 04:35:18;;;;;;;78.43;37.75;;;2.70;99.90;;;;;;5020784;28;20120;-53
2023/03/09 04:37:44;;;;;;;81.50;37.53;;;2.70;99.90;;;;;;5023266;28;20121;-53
2023/03/09 04:40:10;;;;;;;86.85;39.33;;;2.80;99.90;;;;;;5026353;28;20454;-51
2023/03/09 04:42:36;;;;;;;81.32;37.67;;;2.80;99.90;;;;;;5040549;28;20029;-53
2023/03/09 04:45:03;;;;;;;83.22;38.47;;;2.70;99.90;;;;;;5024289;28;20079;-50
2023/03/09 04:47:29;;;;;;;81.57;37.03;;;2.70;99.90;;;;;;5024685;28;20049;-52
2023/03/09 04:49:54;;;;;;;77.88;37.97;;;2.60;99.90;;;;;;5019104;28;20119;-51
2023/03/09 04:52:20;;;;;;;76.25;35.90;;;2.60;99.90;;;;;;5032696;28;20048;-52
2023/03/09 04:54:47;;;;;;;82.07;38.25;;;2.40;99.90;;;;;;5039065;28;20041;-51
2023/03/09 04:57:13;;;;;;;76.95;37.13;;;2.30;99.90;;;;;;5031612;28;20030;-50
2023/03/09 04:59:39;;;;;;;75.57;37.15;;;2.40;99.90;;;;;;5023623;28;20041;-50
2023/03/09 05:02:04;;;;;;;82.55;37.70;;;2.60;99.90;;;;;;5025797;28;20083;-52
2023/03/09 05:04:30;;;;;;;77.72;38.05;;;2.60;99.90;;;;;;5023939;28;20516;-51
2023/03/09 05:06:56;;;;;;;85.13;37.55;;;2.60;99.90;;;;;;5030911;28;20320;-51
2023/03/09 05:09:21;;;;;;;82.78;37.63;;;2.70;99.90;;;;;;5024908;28;20125;-52
2023/03/09 05:11:51;;;;;;;90.35;40.83;;;2.60;99.90;;;;;;5017362;28;20148;-52
2023/03/09 05:14:18;;;;;;;81.85;38.70;;;2.90;99.90;;;;;;5031108;28;20037;-51
2023/03/09 05:16:44;;;;;;;77.53;37.00;;;2.80;99.90;;;;;;5012506;28;20045;-51
2023/03/09 05:19:11;;;;;;;80.43;38.72;;;2.90;99.90;;;;;;5027366;28;20519;-52
2023/03/09 05:21:37;;;;;;;83.45;37.53;;;2.60;99.90;;;;;;5023445;28;20041;-49
2023/03/09 05:24:03;;;;;;;81.10;38.67;;;2.70;99.90;;;;;;5024411;28;20041;-51
2023/03/09 05:26:29;;;;;;;82.38;37.72;;;2.90;99.90;;;;;;5024142;28;20457;-51
2023/03/09 05:28:54;;;;;;;78.63;38.63;;;2.80;99.90;;;;;;5025369;28;20057;-49
2023/03/09 05:31:20;;;;;;;74.78;36.03;;;2.60;99.90;;;;;;5039287;28;20033;-51
2023/03/09 05:33:45;;;;;;;79.55;37.17;;;2.50;99.90;;;;;;5030528;28;20404;-52
2023/03/09 05:36:20;;;;;;;77.80;37.13;;;2.60;99.90;;;;;;5011574;28;20054;-52
2023/03/09 05:38:47;;;;;;;82.65;37.92;;;2.70;99.90;;;;;;5027817;28;20512;-51
2023/03/09 05:41:13;;;;;;;77.32;36.92;;;2.60;99.90;;;;;;5034254;28;20046;-49
2023/03/09 05:43:42;;;;;;;81.75;37.50;;;2.50;99.90;;;;;;5029567;28;20045;-51
2023/03/09 05:46:09;;;;;;;80.45;37.63;;;2.50;99.90;;;;;;5038508;28;20527;-50
2023/03/09 05:48:35;;;;;;;82.97;38.05;;;2.40;99.90;;;;;;5028588;28;20413;-50
2023/03/09 05:51:02;;;;;;;79.95;36.15;;;2.30;99.90;;;;;;5027413;28;20053;-49
2023/03/09 05:53:27;;;;;;;78.30;38.10;;;2.30;99.90;;;;;;5027551;28;20037;-50
2023/03/09 05:55:53;;;;;;;88.70;39.60;;;2.50;99.90;;;;;;5027682;28;20099;-51
2023/03/09 05:58:19;;;;;;;88.65;38.55;;;2.60;99.90;;;;;;5028060;28;20034;-51
2023/03/09 06:00:45;;;;;;;87.70;38.55;;;2.70;99.90;;;;;;5028093;28;20041;-52
2023/03/09 06:03:11;;;;;;;89.78;39.15;;;2.70;99.90;;;;;;5034109;28;20128;-53
2023/03/09 06:05:37;;;;;;;86.72;38.80;;;2.90;99.90;;;;;;5025569;28;20108;-50
2023/03/09 06:08:02;;;;;;;90.60;39.55;;;2.60;99.90;;;;;;5034877;28;20041;-49
2023/03/09 06:10:28;;;;;;;90.63;39.83;;;2.50;99.90;;;;;;5022928;28;20033;-51
2023/03/09 06:12:54;;;;;;;90.95;41.30;;;2.70;99.90;;;;;;5029006;28;20105;-50
2023/03/09 06:15:19;;;;;;;87.50;39.33;;;2.80;99.90;;;;;;5024583;28;20030;-51
2023/03/09 06:17:45;;;;;;;91.15;40.97;;;2.50;99.90;;;;;;5031667;28;20117;-49
2023/03/09 06:20:10;;;;;;;86.88;39.78;;;2.60;99.90;;;;;;5028352;28;20029;-50
2023/03/09 06:22:36;;;;;;;93.50;40.60;;;2.80;99.90;;;;;;5040440;28;20036;-52
2023/03/09 06:25:02;;;;;;;86.97;41.22;;;2.80;99.90;;;;;;5041678;28;20030;-52
2023/03/09 06:27:28;;;;;;;87.45;38.28;;;2.70;99.90;;;;;;5038987;28;20393;-50
2023/03/09 06:29:54;;;;;;;86.57;38.92;;;2.70;99.90;;;;;;5037776;28;20047;-51
2023/03/09 06:32:20;;;;;;;81.03;39.08;;;2.40;99.90;;;;;;5020431;28;20045;-52
2023/03/09 06:34:46;;;;;;;81.60;36.92;;;2.60;99.90;;;;;;5031197;28;20037;-52
2023/03/09 06:37:11;;;;;;;84.70;38.13;;;2.80;99.90;;;;;;5024833;28;20034;-51
2023/03/09 06:39:37;;;;;;;90.03;40.75;;;2.80;99.90;;;;;;5025893;28;20030;-50
2023/03/09 06:42:03;;;;;;;88.60;38.97;;;3.00;99.90;;;;;;5027729;28;20044;-50
2023/03/09 06:44:29;;;;;;;84.10;39.38;;;3.00;99.90;;;;;;5021287;28;20152;-50
2023/03/09 06:46:54;;;;;;;89.32;40.08;;;3.10;99.90;;;;;;5026142;28;20612;-52
2023/03/09 06:49:20;;;;;;;86.72;38.10;;;3.00;99.90;;;;;;5026094;28;20061;-51
2023/03/09 06:51:45;;;;;;;82.13;37.15;;;3.10;99.90;;;;;;5029649;28;20041;-52
2023/03/09 06:54:11;;;;;;;89.72;39.08;;;3.00;99.90;;;;;;5026429;28;20051;-49
2023/03/09 06:56:36;;;;;;;88.18;39.45;;;3.20;99.90;;;;;;5029961;28;20034;-52
2023/03/09 06:59:02;;;;;;;83.40;39.55;;;3.40;99.90;;;;;;5034857;28;20120;-50
2023/03/09 07:01:28;;;;;;;90.50;40.60;;;3.50;99.90;;;;;;5028552;28;20080;-51
2023/03/09 07:03:53;;;;;;;89.32;39.30;;;3.50;99.90;;;;;;5021778;28;20037;-51
2023/03/09 07:06:19;;;;;;;98.72;40.47;;;3.60;99.90;;;;;;5024157;28;20037;-52
2023/03/09 07:08:44;;;;;;;82.80;37.65;;;3.60;99.90;;;;;;5027318;28;20041;-50
2023/03/09 07:11:10;;;;;;;90.65;40.10;;;3.30;99.90;;;;;;5026533;28;20151;-54
2023/03/09 07:13:35;;;;;;;83.38;39.20;;;3.30;99.90;;;;;;5020702;28;20029;-55
2023/03/09 07:16:02;;;;;;;79.13;38.58;;;3.20;99.90;;;;;;5008613;28;20037;-52
2023/03/09 07:18:28;;;;;;;81.38;38.10;;;3.10;99.90;;;;;;5034436;28;20037;-53
2023/03/09 07:20:54;;;;;;;80.68;38.28;;;3.10;99.90;;;;;;5032497;28;20040;-54
2023/03/09 07:23:19;;;;;;;78.25;37.25;;;3.00;99.90;;;;;;5030074;28;20041;-54
2023/03/09 07:25:45;;;;;;;74.78;35.90;;;3.00;99.90;;;;;;5025756;28;20053;-54
2023/03/09 07:28:11;;;;;;;77.55;37.28;;;3.00;99.90;;;;;;5016650;28;20060;-52
2023/03/09 07:30:37;;;;;;;79.10;38.38;;;3.10;99.90;;;;;;5032733;28;20029;-53
2023/03/09 07:33:03;;;;;;;80.28;37.83;;;3.10;99.90;;;;;;5032242;28;20044;-54
2023/03/09 07:35:29;;;;;;;83.55;36.67;;;3.00;99.90;;;;;;5039881;28;20029;-52
2023/03/09 07:37:55;;;;;;;80.53;37.78;;;2.90;99.90;;;;;;5024074;28;20486;-54
2023/03/09 07:40:20;;;;;;;79.97;36.03;;;2.80;99.90;;;;;;5038252;28;20033;-53
2023/03/09 07:42:50;;;;;;;84.85;37.92;;;2.80;99.90;;;;;;5040855;28;20067;-54
2023/03/09 07:45:16;;;;;;;83.18;36.50;;;2.90;99.90;;;;;;5039968;28;20635;-54
2023/03/09 07:47:42;;;;;;;102.22;41.22;;;2.90;99.90;;;;;;5039761;28;20030;-54
2023/03/09 07:50:08;;;;;;;99.65;41.53;;;3.30;99.90;;;;;;5032419;28;20037;-54
2023/03/09 07:52:34;;;;;;;99.30;42.42;;;3.60;99.90;;;;;;5037704;28;20041;-56
2023/03/09 07:55:01;;;;;;;95.40;41.25;;;3.50;99.90;;;;;;5035708;28;20030;-54
2023/03/09 07:57:31;;;;;;;92.93;41.78;;;3.30;99.90;;;;;;5045994;28;20036;-53
2023/03/09 07:59:57;;;;;;;101.07;41.40;;;3.00;99.90;;;;;;5039916;28;20037;-54
2023/03/09 08:02:23;;;;;;;95.78;41.90;;;2.90;99.90;;;;;;5061608;28;20047;-54
2023/03/09 08:04:48;;;;;;;103.55;42.28;;;2.90;99.90;;;;;;5056477;28;20032;-54
2023/03/09 08:07:14;;;;;;;98.63;40.88;;;3.00;99.90;;;;;;5053928;28;20040;-53
2023/03/09 08:09:40;;;;;;;104.22;40.78;;;3.10;99.90;;;;;;5051968;28;20070;-54
2023/03/09 08:12:06;;;;;;;98.72;40.85;;;3.20;99.90;;;;;;5056890;28;20119;-53
2023/03/09 08:14:31;;;;;;;96.82;40.42;;;3.20;99.90;;;;;;5050106;28;20033;-54
2023/03/09 08:16:57;;;;;;;91.97;38.85;;;3.20;99.90;;;;;;5047505;28;20552;-53
2023/03/09 08:19:23;;;;;;;91.97;38.60;;;3.10;99.90;;;;;;5044698;28;20118;-54
2023/03/09 08:21:49;;;;;;;102.05;40.70;;;3.00;99.90;;;;;;5049116;28;20057;-53
2023/03/09 08:24:15;;;;;;;97.82;40.05;;;3.30;99.90;;;;;;5051216;28;20139;-54
2023/03/09 08:26:42;;;;;;;95.13;39.60;;;3.20;99.90;;;;;;5055971;28;20558;-53
2023/03/09 08:29:08;;;;;;;95.82;39.17;;;3.30;99.90;;;;;;5052832;28;20062;-53
2023/03/09 08:31:35;;;;;;;93.43;39.15;;;3.30;99.90;;;;;;5058224;28;20036;-53
2023/03/09 08:34:02;;;;;;;96.32;39.95;;;3.40;99.90;;;;;;5054410;28;20025;-54
2023/03/09 08:36:27;;;;;;;98.68;40.42;;;3.40;99.90;;;;;;5056884;28;20036;-53
2023/03/09 08:38:53;;;;;;;93.53;39.60;;;3.30;99.90;;;;;;5055501;28;20036;-54
2023/03/09 08:41:19;;;;;;;95.93;40.05;;;3.30;99.90;;;;;;5054864;28;20028;-55
2023/03/09 08:43:46;;;;;;;99.95;40.88;;;3.10;99.90;;;;;;5054434;28;20040;-54
2023/03/09 08:46:12;;;;;;;105.40;41.42;;;3.10;99.90;;;;;;5037057;28;20028;-54
2023/03/09 08:48:38;;;;;;;96.80;41.88;;;3.10;99.90;;;;;;5058620;28;20033;-54
2023/03/09 08:51:06;;;;;;;106.07;41.83;;;3.00;99.90;;;;;;5052860;28;20392;-54
2023/03/09 08:53:33;;;;;;;110.53;43.55;;;3.00;99.90;;;;;;5053839;28;20040;-55
2023/03/09 08:56:06;;;;;;;102.43;41.95;;;3.20;99.90;;;;;;5048582;28;20029;-53
2023/03/09 08:58:32;;;;;;;110.03;44.65;;;3.40;99.90;;;;;;5038432;28;20272;-54
2023/03/09 09:01:03;;;;;;;107.18;42.70;;;3.10;99.90;;;;;;5036578;28;20029;-55
2023/03/09 09:03:29;;;;;;;108.57;42.97;;;3.20;99.90;;;;;;5050293;28;20084;-54
2023/03/09 09:05:56;;;;;;;104.57;40.60;;;3.50;99.90;;;;;;5053771;28;20515;-53
2023/03/09 09:08:21;;;;;;;105.93;41.30;;;3.50;99.90;;;;;;5053256;28;20041;-52
2023/03/09 09:10:47;;;;;;;103.50;42.13;;;3.40;99.90;;;;;;5054216;28;20173;-55
2023/03/09 09:13:13;;;;;;;106.97;42.17;;;3.60;99.90;;;;;;5054849;28;20048;-54
2023/03/09 09:15:41;;;;;;;105.30;42.83;;;3.40;99.90;;;;;;5052280;28;20033;-55
2023/03/09 09:18:06;;;;;;;109.97;43.28;;;3.50;99.90;;;;;;5051602;28;20033;-53
2023/03/09 09:20:32;;;;;;;97.88;40.78;;;3.60;99.90;;;;;;5047339;28;20124;-54
2023/03/09 09:22:58;;;;;;;101.13;42.20;;;3.60;99.90;;;;;;5048964;28;20035;-53
2023/03/09 09:25:24;;;;;;;92.82;39.88;;;3.80;99.90;;;;;;5058540;28;20032;-53
2023/03/09 09:27:50;;;;;;;94.85;39.95;;;3.90;99.90;;;;;;5053931;28;20025;-54
2023/03/09 09:30:17;;;;;;;100.47;42.13;;;3.70;99.90;;;;;;5054821;28;20084;-52
2023/03/09 09:32:44;;;;;;;91.35;40.60;;;3.70;99.90;;;;;;5049504;28;20459;-54
2023/03/09 09:35:11;;;;;;;96.00;41.22;;;3.80;99.90;;;;;;5057034;28;20056;-54
2023/03/09 09:37:37;;;;;;;94.55;38.72;;;4.00;99.90;;;;;;5053949;28;20052;-54
2023/03/09 09:40:04;;;;;;;100.50;40.42;;;4.20;99.90;;;;;;5051553;28;20511;-54
2023/03/09 09:42:35;;;;;;;94.70;40.85;;;4.20;99.90;;;;;;5051406;28;20041;-55
2023/03/09 09:45:03;;;;;;;95.70;40.67;;;4.20;99.90;;;;;;5054817;28;20498;-54
2023/03/09 09:47:30;;;;;;;97.65;42.38;;;4.40;99.90;;;;;;5038379;28;20489;-54
2023/03/09 09:49:59;;;;;;;97.00;38.97;;;4.50;99.90;;;;;;5030434;28;20490;-53
2023/03/09 09:52:43;;;;;;;94.90;38.80;;;4.50;99.90;;;;;;5030517;28;20120;-54
2023/03/09 09:55:20;;;;;;;103.82;40.42;;;4.60;99.90;;;;;;5028183;28;20029;-52
2023/03/09 09:58:01;;;;;;;102.35;42.30;;;4.60;99.90;;;;;;5034940;28;20045;-53
2023/03/09 10:00:39;;;;;;;99.30;42.22;;;4.50;99.90;;;;;;5045101;28;20470;-54
2023/03/09 10:03:22;;;;;;;102.53;40.08;;;4.70;99.90;;;;;;5050560;28;20041;-54
2023/03/09 10:05:58;;;;;;;93.93;39.80;;;4.40;99.90;;;;;;5051057;28;20059;-53
2023/03/09 10:08:55;;;;;;;95.00;40.92;;;4.40;99.90;;;;;;5049119;28;20433;-53
2023/03/09 10:11:26;;;;;;;88.65;37.10;;;4.40;99.90;;;;;;4994488;28;21034;-54
2023/03/09 10:14:00;;;;;;;98.32;40.17;;;4.60;99.90;;;;;;5048889;28;20033;-53
2023/03/09 10:16:36;;;;;;;94.03;40.17;;;4.80;99.90;;;;;;5054109;28;20044;-53
2023/03/09 10:19:07;;;;;;;92.13;39.35;;;4.80;99.90;;;;;;5051906;28;20029;-52
2023/03/09 10:21:46;;;;;;;89.65;38.75;;;4.70;99.90;;;;;;5047855;28;20032;-54
2023/03/09 10:24:31;;;;;;;92.57;39.58;;;4.50;99.90;;;;;;5053972;28;20496;-54
2023/03/09 10:27:23;;;;;;;87.75;37.85;;;4.40;99.90;;;;;;5053196;28;20033;-54
2023/03/09 10:30:05;;;;;;;85.85;37.22;;;4.80;99.90;;;;;;5036075;28;20033;-55
2023/03/09 10:32:40;;;;;;;89.13;39.45;;;4.90;99.90;;;;;;5035371;28;20495;-53
2023/03/09 10:35:45;;;;;;;92.85;39.83;;;4.90;99.90;;;;;;5028019;28;20412;-54
2023/03/09 10:38:15;;;;;;;93.30;41.83;;;5.00;99.90;;;;;;5035526;28;20093;-52
2023/03/09 10:40:52;;;;;;;84.20;37.90;;;4.90;99.90;;;;;;5033056;28;20037;-53
2023/03/09 10:43:27;;;;;;;81.25;35.60;;;5.30;99.90;;;;;;5033304;28;20037;-54
2023/03/09 10:45:53;;;;;;;77.85;36.47;;;5.40;99.90;;;;;;5034188;28;20041;-54
2023/03/09 10:48:21;;;;;;;81.35;37.42;;;5.40;99.90;;;;;;5044124;28;20090;-54
2023/03/09 10:51:01;;;;;;;84.43;37.83;;;5.40;99.90;;;;;;5035599;28;20033;-53
2023/03/09 10:53:36;;;;;;;78.45;37.42;;;5.50;99.90;;;;;;5039884;28;20037;-54
2023/03/09 10:56:13;;;;;;;68.90;35.22;;;5.60;99.90;;;;;;5034945;28;20078;-53
2023/03/09 10:58:39;;;;;;;67.18;32.05;;;5.50;99.90;;;;;;5032316;28;20033;-53
2023/03/09 11:01:19;;;;;;;61.78;31.83;;;5.20;99.90;;;;;;5034276;28;20034;-53
2023/03/09 11:03:45;;;;;;;58.53;31.15;;;5.10;99.90;;;;;;5034741;28;20030;-52
2023/03/09 11:06:33;;;;;;;61.30;31.60;;;5.00;99.90;;;;;;5035226;28;20174;-53
2023/03/09 11:09:12;;;;;;;59.60;31.33;;;5.10;99.90;;;;;;5041080;28;20041;-53
2023/03/09 11:11:39;;;;;;;59.50;30.33;;;5.00;99.90;;;;;;5040134;28;20033;-54
2023/03/09 11:14:16;;;;;;;64.53;32.17;;;5.30;99.90;;;;;;5035064;28;20082;-52
2023/03/09 11:16:56;;;;;;;65.07;31.77;;;5.50;99.90;;;;;;5030420;28;20534;-53
2023/03/09 11:19:22;;;;;;;59.20;30.27;;;5.60;99.90;;;;;;5024184;28;20042;-54
2023/03/09 11:21:50;;;;;;;63.75;32.13;;;5.70;99.90;;;;;;5028145;28;20405;-54
2023/03/09 11:24:17;;;;;;;57.83;30.73;;;6.00;99.90;;;;;;5034511;28;20441;-53
2023/03/09 11:26:49;;;;;;;59.78;31.02;;;5.80;99.90;;;;;;5034363;28;20041;-54
2023/03/09 11:29:32;;;;;;;46.65;23.30;;;5.80;99.90;;;;;;5033381;28;20061;-53
2023/03/09 11:31:58;;;;;;;58.17;30.88;;;6.10;99.90;;;;;;5037263;28;20492;-54
2023/03/09 11:34:34;;;;;;;62.60;31.85;;;6.10;99.90;;;;;;5037014;28;20087;-53
2023/03/09 11:37:19;;;;;;;53.53;30.10;;;6.00;99.90;;;;;;5035297;28;20034;-55
2023/03/09 11:40:01;;;;;;;58.97;30.85;;;5.90;99.90;;;;;;5055391;28;20037;-54
2023/03/09 11:42:47;;;;;;;57.30;30.00;;;5.80;99.90;;;;;;5057268;28;20614;-54
2023/03/09 11:45:25;;;;;;;55.65;30.17;;;5.70;99.90;;;;;;5058411;28;20519;-54
2023/03/09 11:47:55;;;;;;;61.17;31.95;;;6.00;99.90;;;;;;5055696;28;20108;-54
2023/03/09 11:50:43;;;;;;;63.33;33.15;;;6.40;99.90;;;;;;5052607;28;20062;-54
2023/03/09 11:53:24;;;;;;;62.33;32.55;;;6.50;99.90;;;;;;5052673;28;20431;-54
2023/03/09 11:55:54;;;;;;;57.10;30.52;;;6.20;99.90;;;;;;5051526;28;20047;-54
2023/03/09 11:58:29;;;;;;;58.85;30.45;;;6.20;99.90;;;;;;5055709;28;20032;-54
2023/03/09 12:01:20;;;;;;;54.38;30.48;;;6.20;99.90;;;;;;5038045;28;20029;-55
2023/03/09 12:03:56;;;;;;;53.10;28.08;;;6.10;99.90;;;;;;5023045;28;20404;-53
2023/03/09 12:06:46;;;;;;;53.83;29.35;;;6.10;99.90;;;;;;5023140;28;20037;-52
2023/03/09 12:09:43;;;;;;;52.60;29.23;;;5.90;99.90;;;;;;5031450;28;20049;-54
2023/03/09 12:12:33;;;;;;;60.78;31.38;;;6.10;99.90;;;;;;5038884;28;20048;-53
2023/03/09 12:15:23;;;;;;;58.50;30.92;;;6.10;99.90;;;;;;5036611;28;20029;-52
2023/03/09 12:17:58;;;;;;;51.95;29.88;;;6.20;99.90;;;;;;5056203;28;20127;-54
2023/03/09 12:20:30;;;;;;;53.97;30.70;;;6.10;99.90;;;;;;5053614;28;20484;-54
2023/03/09 12:22:56;;;;;;;57.85;31.55;;;5.90;99.90;;;;;;5051523;28;20024;-55
2023/03/09 12:25:23;;;;;;;62.67;34.10;;;6.20;99.90;;;;;;5058128;28;20036;-54
2023/03/09 12:27:53;;;;;;;65.25;32.92;;;6.50;99.90;;;;;;5051977;28;20399;-55
2023/03/09 12:30:30;;;;;;;60.05;32.15;;;6.50;99.90;;;;;;5048873;28;20043;-53
2023/03/09 12:32:56;;;;;;;64.53;32.97;;;6.30;99.90;;;;;;5050145;28;20054;-55
2023/03/09 12:35:22;;;;;;;56.60;31.77;;;6.30;99.90;;;;;;5048151;28;20029;-54
2023/03/09 12:37:59;;;;;;;58.20;32.10;;;6.40;99.90;;;;;;5052221;28;20476;-54
2023/03/09 12:40:25;;;;;;;60.53;32.67;;;6.60;99.90;;;;;;5048191;28;20466;-54
2023/03/09 12:42:53;;;;;;;61.35;33.05;;;6.50;99.90;;;;;;5050205;28;20112;-52